• Join FlightAware (Why Join?)
  • Login
  • US Flag 
03:05AM EDT


 

Airport Tracker/Info


-or-


 

Live Flight TrackerFlight Track Log ✈ SWA220 ✈ 20-Apr-2012 ✈ KSTL - KDEN

Flight Track Log - Related Links

Times and Time Zones

All times are in EDT time to prevent confusion due to time zone crossing. See the SWA220 flight status page for this flight to view local times or setup timezone preferences in your user account.

Time Position Orientation Groundspeed Altitude Reporting Facility
EDT Latitude Longitude Course Direction KTS MPH feet Rate Location/Type
05:35PM 38.7508 -90.3267 301° West 153 176 1,700  Level FAA TRACON SMA TRACON (SMA)
05:36PM 38.7786 -90.3853 289° West 216 249 3,600 2,100 Climbing FAA TRACON SMA TRACON (SMA)
05:36PM 38.7939 -90.4433 287° West 254 292 5,200 2,460 Climbing FAA TRACON SMA TRACON (SMA)
05:37PM 38.8072 -90.5008 290° West 276 318 6,900 3,060 Climbing FAA TRACON SMA TRACON (SMA)
05:38PM 38.8261 -90.5658 289° West 282 325 9,300 3,060 Climbing FAA TRACON SMA TRACON (SMA)
05:38PM 38.8417 -90.6256 288° West 285 328 11,000 2,160 Climbing FAA TRACON SMA TRACON (SMA)
05:39PM 38.8611 -90.7014 288° West 330 380 12,200 2,220 Climbing FAA TRACON SMA TRACON (SMA)
05:40PM 38.8817 -90.7814 289° West 343 395 14,000 2,700 Climbing FAA TRACON SMA TRACON (SMA)
05:40PM 38.9039 -90.8636 289° West 353 406 15,800 2,460 Climbing FAA TRACON SMA TRACON (SMA)
05:41PM 38.9236 -90.9389 289° West 363 418 17,300 2,280 Climbing FAA TRACON SMA TRACON (SMA)
05:42PM 38.9467 -91.0244 287° West 369 425 18,900 2,160 Climbing FAA TRACON SMA TRACON (SMA)
05:42PM 38.9675 -91.1139 282° West 380 437 20,200 1,920 Climbing FAA TRACON SMA TRACON (SMA)
05:43PM 38.9811 -91.1964 282° West 384 442 21,500 1,920 Climbing FAA TRACON SMA TRACON (SMA)
05:44PM 38.9969 -91.2897 282° West 388 447 22,800 1,920 Climbing FAA TRACON SMA TRACON (SMA)
05:44PM 39.0125 -91.3850 281° West 395 455 24,100 1,920 Climbing FAA TRACON SMA TRACON (SMA)
05:45PM 39.0256 -91.4703 283° West 395 455 25,400 2,040 Climbing FAA TRACON SMA TRACON (SMA)
05:46PM 39.0425 -91.5644 278° West 390 449 26,900 2,040 Climbing FAA TRACON SMA TRACON (SMA)
05:47PM 39.0667 -91.7869 281° West 392 451 29,400 1,800 Climbing Kansas City Center
05:48PM 39.0861 -91.9200 281° West 392 451 31,000 1,260 Climbing Kansas City Center
05:49PM 39.1056 -92.0503 278° West 387 445 32,000 480 Climbing Kansas City Center
05:50PM 39.1208 -92.1836 275° West 387 445 32,000  Level Kansas City Center
05:51PM 39.1294 -92.3169 275° West 381 438 32,000  Level Kansas City Center
05:52PM 39.1381 -92.4453 275° West 375 432 32,000  Level Kansas City Center
05:53PM 39.1467 -92.5814 276° West 370 426 32,000  Level Kansas City Center
05:54PM 39.1569 -92.7072 274° West 370 426 32,000 300 Level Kansas City Center
05:55PM 39.1650 -92.8433 276° West 370 426 32,700 900 Climbing Kansas City Center
05:56PM 39.1753 -92.9797 275° West 380 437 33,900 600 Climbing Kansas City Center
05:57PM 39.1853 -93.1242 275° West 394 453 34,000  Climbing Kansas City Center
05:58PM 39.1953 -93.2633 274° West 399 459 34,000  Level Kansas City Center
05:59PM 39.2028 -93.4025 274° West 399 459 34,000  Level Kansas City Center
06:00PM 39.2103 -93.5442 275° West 404 465 34,000  Level Kansas City Center
06:01PM 39.2197 -93.6728 274° West 404 465 34,000  Level Kansas City Center
06:02PM 39.2289 -93.8281 276° West 404 465 34,000  Level Kansas City Center
06:03PM 39.2400 -93.9753 275° West 404 465 34,000  Level Kansas City Center
06:04PM 39.2489 -94.1172 275° West 404 465 34,000  Level Kansas City Center
06:05PM 39.2578 -94.2514 275° West 404 465 34,000  Level Kansas City Center
06:06PM 39.2683 -94.4122 273° West 411 473 34,000  Level Kansas City Center
06:07PM 39.2747 -94.5597 265° West 411 473 34,000  Level Kansas City Center
06:08PM 39.2661 -94.6936 265° West 411 473 34,000  Level Kansas City Center
06:09PM 39.2556 -94.8411 265° West 416 479 34,000  Level Kansas City Center
06:10PM 39.2444 -95.0044 265° West 421 484 34,000  Level Kansas City Center
06:11PM 39.2333 -95.1544 265° West 432 497 34,000  Level Kansas City Center
06:12PM 39.2242 -95.2883 264° West 432 497 34,000  Level Kansas City Center
06:13PM 39.2106 -95.4542 264° West 424 488 34,000  Level Kansas City Center
06:14PM 39.1989 -95.5908 265° West 424 488 34,000  Level Kansas City Center
06:15PM 39.1892 -95.7406 264° West 424 488 34,000  Level Kansas City Center
06:16PM 39.1747 -95.9036 263° West 424 488 34,000  Level Kansas City Center
06:17PM 39.1606 -96.0533 265° West 424 488 34,000 360 Level Kansas City Center
06:18PM 39.1500 -96.2003 264° West 424 488 34,800 960 Climbing Kansas City Center
06:19PM 39.1375 -96.3472 265° West 417 480 36,000 600 Climbing Kansas City Center
06:20PM 39.1269 -96.4967 262° West 417 480 36,000  Level Kansas City Center
06:21PM 39.1117 -96.6436 265° West 424 488 36,000  Level Kansas City Center
06:22PM 39.1031 -96.7717 261° West 419 482 36,000  Level Kansas City Center
06:23PM 39.0856 -96.9208 265° West 419 482 36,000  Level Kansas City Center
06:24PM 39.0739 -97.0836 262° West 425 489 36,000  Level Kansas City Center
06:25PM 39.0583 -97.2275 264° West 419 482 36,000  Level Kansas City Center
06:26PM 39.0467 -97.3633 263° West 419 482 36,000  Level Kansas City Center
06:27PM 39.0328 -97.5097 263° West 424 488 36,000  Level Kansas City Center
06:28PM 39.0158 -97.6800 263° West 429 494 36,000 -480 Level Kansas City Center
06:29PM 39.0014 -97.8317 263° West 429 494 35,100 -900 Descending Kansas City Center
06:30PM 38.9867 -97.9806 264° West 438 504 34,200 -600 Descending Kansas City Center
06:31PM 38.9742 -98.1214 262° West 438 504 34,000 -120 Descending Kansas City Center
06:32PM 38.9569 -98.2728 263° West 443 510 34,000  Level Kansas City Center
06:33PM 38.9417 -98.4242 263° West 443 510 34,000  Level Kansas City Center
06:34PM 38.9261 -98.5756 262° West 438 504 34,000  Level Kansas City Center
06:35PM 38.9106 -98.7242 261° West 432 497 34,000  Level Kansas City Center
06:36PM 38.8928 -98.8697 263° West 426 490 34,000  Level Kansas City Center
06:37PM 38.8792 -99.0183 261° West 426 490 34,000  Level Kansas City Center
06:38PM 38.8608 -99.1667 267° West 426 490 34,000  Level Kansas City Center
06:40PM 38.8494 -99.4281 271° West 413 475 34,000  Level Denver Center
06:41PM 38.8519 -99.5719 270° West 407 468 34,000  Level Denver Center
06:42PM 38.8508 -99.7267 271° West 407 468 34,000  Level Denver Center
06:43PM 38.8531 -99.8758 270° West 407 468 34,000  Level Denver Center
06:44PM 38.8522 -100.0039 271° West 407 468 34,000  Level Denver Center
06:46PM 38.8544 -100.3106 270° West 413 475 34,000  Level Denver Center
06:47PM 38.8539 -100.4575 271° West 413 475 34,000  Level Denver Center
06:48PM 38.8547 -100.5908 270° West 413 475 34,000  Level Denver Center
06:49PM 38.8542 -100.7428 270° West 403 464 34,000  Level Denver Center
06:50PM 38.8533 -100.8950 270° West 409 471 34,000  Level Denver Center
06:52PM 38.8539 -101.1697 271° West 409 471 34,000  Level Denver Center
06:53PM 38.8550 -101.3322 269° West 414 476 34,000  Level Denver Center
06:54PM 38.8531 -101.4792 270° West 414 476 34,000  Level Denver Center
06:55PM 38.8525 -101.6125 268° West 414 476 34,000  Level Denver Center
06:56PM 38.8489 -101.7728 270° West 422 486 34,000  Level Denver Center
06:57PM 38.8483 -101.9142 269° West 422 486 34,000  Level Denver Center
06:58PM 38.8458 -102.0636 269° West 422 486 34,000 -120 Level Denver Center
06:59PM 38.8444 -102.1917 284° West 416 479 33,800 -600 Descending Denver Center
07:00PM 38.8728 -102.3392 292° West 393 452 32,800 -960 Descending Denver Center
07:01PM 38.9128 -102.4650 294° West 386 444 31,900 -900 Descending Denver Center
07:02PM 38.9522 -102.5803 294° West 386 444 31,000 -960 Descending Denver Center
07:03PM 38.9958 -102.7036 293° West 386 444 30,000 -1,080 Descending Denver Center
07:04PM 39.0422 -102.8428 292° West 396 456 28,900 -1,080 Descending Denver Center
07:05PM 39.0839 -102.9742 295° West 396 456 27,900 -960 Descending Denver Center
07:06PM 39.1314 -103.1058 292° West 396 456 27,000 -900 Descending Denver Center
07:07PM 39.1728 -103.2378 293° West 396 456 26,100 -900 Descending Denver Center
07:08PM 39.2117 -103.3564 292° West 402 463 25,300 -900 Descending Denver Center
07:09PM 39.2547 -103.4939 293° West 413 475 24,300 -1,080 Descending Denver Center
07:10PM 39.2956 -103.6211 293° West 408 470 23,200 -1,500 Descending Denver Center
07:11PM 39.3361 -103.7456 293° West 394 453 21,300 -1,920 Descending Denver Center
07:12PM 39.3744 -103.8650 284° West 367 422 19,400 -1,500 Descending Denver Center
07:13PM 39.3956 -103.9769 284° West 339 390 18,300 -1,800 Descending Denver Center
07:14PM 39.4192 -104.0972 288° West 328 377 15,800 -2,460 Descending Denver Center
07:15PM 39.4464 -104.2092 280° West 323 372 13,400 -2,280 Descending Denver Center
07:16PM 39.4608 -104.3189 290° West 318 366 11,300 -1,200 Descending Denver Center
07:17PM 39.4878 -104.4150 312° West 303 349 11,000 -1,020 Descending Denver Center
07:18PM 39.5392 -104.4889 327° Northwest 273 314 9,300 -1,560 Descending Denver Center
07:19PM 39.6006 -104.5408 328° Northwest 268 308 7,900 -1,200 Descending Denver Center
07:20PM 39.6617 -104.5906 327° Northwest 268 308 7,000 -480 Descending Denver Center
07:21PM 39.7144 -104.6350 335° Northwest 249 287 7,000 -120 Level Denver Center
07:22PM 39.7608 -104.6633 357° North 205 236 6,800 -600 Descending Denver Center
07:23PM 39.8167 -104.6667 357° North 151 174 5,600 -900 Descending Denver TRACON